createdAt,value
2019-01-15T00:00:23.604Z,4.83
2019-01-15T00:02:52.044Z,4.83
2019-01-15T00:05:20.462Z,5.90
2019-01-15T00:07:48.909Z,6.70
2019-01-15T00:10:17.339Z,5.13
2019-01-15T00:12:45.764Z,6.40
2019-01-15T00:15:14.302Z,9.13
2019-01-15T00:17:42.748Z,3.07
2019-01-15T00:20:13.567Z,4.83
2019-01-15T00:22:41.995Z,4.67
2019-01-15T00:25:10.729Z,6.23
2019-01-15T00:27:39.164Z,4.63
2019-01-15T00:30:13.634Z,9.63
2019-01-15T00:32:42.100Z,8.27
2019-01-15T00:35:10.510Z,5.50
2019-01-15T00:37:38.906Z,4.57
2019-01-15T00:40:10.559Z,6.37
2019-01-15T00:42:39.039Z,7.30
2019-01-15T00:45:08.996Z,6.53
2019-01-15T00:47:37.449Z,6.90
2019-01-15T00:50:08.908Z,6.20
2019-01-15T00:52:37.332Z,5.33
2019-01-15T00:55:07.208Z,7.67
2019-01-15T00:57:35.602Z,7.10
2019-01-15T01:00:13.300Z,5.40
2019-01-15T01:02:41.706Z,4.17
2019-01-15T01:05:10.340Z,8.10
2019-01-15T01:07:38.844Z,3.87
2019-01-15T01:10:10.222Z,5.63
2019-01-15T01:12:38.622Z,6.13
2019-01-15T01:15:10.138Z,6.40
2019-01-15T01:17:38.655Z,9.13
2019-01-15T01:20:10.123Z,6.43
2019-01-15T01:22:38.595Z,8.90
2019-01-15T01:25:09.875Z,6.43
2019-01-15T01:27:38.278Z,9.20
2019-01-15T01:30:12.427Z,5.57
2019-01-15T01:32:40.823Z,6.10
2019-01-15T01:35:09.319Z,8.10
2019-01-15T01:37:37.772Z,9.67
2019-01-15T01:40:17.266Z,7.47
2019-01-15T01:42:45.842Z,7.83
2019-01-15T01:45:15.398Z,6.70
2019-01-15T01:47:43.883Z,7.57
2019-01-15T01:50:13.471Z,10.50
2019-01-15T01:52:42.212Z,8.50
2019-01-15T01:55:12.628Z,10.93
2019-01-15T01:57:41.025Z,7.93
2019-01-15T02:00:16.885Z,7.47
2019-01-15T02:02:45.461Z,8.83
2019-01-15T02:05:13.997Z,10.50
2019-01-15T02:07:42.560Z,12.20
2019-01-15T02:10:13.270Z,10.33
2019-01-15T02:12:41.692Z,10.70
2019-01-15T02:15:15.813Z,10.63
2019-01-15T02:17:44.247Z,12.03
2019-01-15T02:20:15.897Z,14.17
2019-01-15T02:22:44.371Z,9.60
2019-01-15T02:25:13.176Z,13.50
2019-01-15T02:27:43.260Z,10.07
2019-01-15T02:30:14.792Z,9.67
2019-01-15T02:32:43.221Z,13.73
2019-01-15T02:35:11.679Z,14.20
2019-01-15T02:37:40.153Z,10.10
2019-01-15T02:40:13.597Z,9.83
2019-01-15T02:42:46.621Z,13.27
2019-01-15T02:45:14.816Z,12.33
2019-01-15T02:47:43.227Z,11.40
2019-01-15T02:50:13.929Z,15.57
2019-01-15T02:52:42.328Z,10.03
2019-01-15T02:55:11.620Z,10.43
2019-01-15T02:57:40.044Z,14.50
2019-01-15T03:00:22.976Z,11.23
2019-01-15T03:02:51.454Z,13.50
2019-01-15T03:05:20.242Z,12.33
2019-01-15T03:07:48.640Z,14.37
2019-01-15T03:10:18.905Z,11.03
2019-01-15T03:12:55.498Z,12.70
2019-01-15T03:15:21.835Z,17.80
2019-01-15T03:17:50.240Z,13.37
2019-01-15T03:20:18.747Z,14.67
2019-01-15T03:22:47.200Z,12.73
2019-01-15T03:25:15.877Z,10.93
2019-01-15T03:27:44.869Z,13.83
2019-01-15T03:30:21.273Z,12.73
2019-01-15T03:32:49.739Z,12.00
2019-01-15T03:35:18.208Z,13.43
2019-01-15T03:37:46.609Z,14.30
2019-01-15T03:40:17.776Z,14.00
2019-01-15T03:42:46.203Z,14.70
2019-01-15T03:45:14.714Z,11.63
2019-01-15T03:47:43.173Z,10.60
2019-01-15T03:50:11.793Z,13.67
2019-01-15T03:52:40.433Z,13.43
2019-01-15T03:55:10.916Z,13.33
2019-01-15T03:57:39.531Z,16.00
2019-01-15T04:00:13.797Z,15.43
2019-01-15T04:02:42.281Z,13.17
2019-01-15T04:05:10.773Z,13.10
2019-01-15T04:07:39.449Z,12.50
2019-01-15T04:10:09.749Z,13.67
2019-01-15T04:12:38.189Z,11.70
2019-01-15T04:15:09.883Z,10.27
2019-01-15T04:17:38.407Z,12.13
2019-01-15T04:20:10.137Z,10.50
2019-01-15T04:22:38.562Z,10.57
2019-01-15T04:25:08.138Z,13.07
2019-01-15T04:27:36.539Z,13.43
2019-01-15T04:30:10.992Z,16.50
2019-01-15T04:32:39.421Z,9.63
2019-01-15T04:35:09.317Z,11.10
2019-01-15T04:37:37.711Z,14.47
2019-01-15T04:40:17.260Z,11.83
2019-01-15T04:42:45.686Z,11.50
2019-01-15T04:45:19.176Z,12.23
2019-01-15T04:47:47.582Z,9.03
2019-01-15T04:50:16.763Z,12.87
2019-01-15T04:52:47.175Z,11.67
2019-01-15T04:55:15.727Z,11.00
2019-01-15T04:57:44.162Z,11.37
2019-01-15T05:00:17.684Z,11.87
2019-01-15T05:02:46.149Z,12.77
2019-01-15T05:05:14.754Z,13.50
2019-01-15T05:07:43.241Z,14.03
2019-01-15T05:10:13.783Z,14.07
2019-01-15T05:12:42.195Z,14.83
2019-01-15T05:15:13.494Z,13.93
2019-01-15T05:17:41.976Z,15.03
2019-01-15T05:20:13.153Z,18.13
2019-01-15T05:22:41.615Z,16.97
2019-01-15T05:25:15.611Z,15.53
2019-01-15T05:27:44.036Z,17.47
2019-01-15T05:30:20.609Z,12.47
2019-01-15T05:32:49.210Z,17.43
2019-01-15T05:35:17.673Z,18.20
2019-01-15T05:37:46.356Z,14.83
2019-01-15T05:40:15.885Z,17.20
2019-01-15T05:42:44.297Z,15.17
2019-01-15T05:45:21.906Z,16.97
2019-01-15T05:47:51.550Z,17.87
2019-01-15T05:50:27.188Z,20.00
2019-01-15T05:52:55.592Z,17.47
2019-01-15T05:55:24.052Z,15.83
2019-01-15T05:57:52.457Z,20.73
2019-01-15T06:00:20.964Z,16.10
2019-01-15T06:02:50.887Z,20.80
2019-01-15T06:05:19.636Z,21.40
2019-01-15T06:07:48.137Z,16.00
2019-01-15T06:10:16.734Z,14.83
2019-01-15T06:12:45.179Z,17.20
2019-01-15T06:15:15.907Z,14.37
2019-01-15T06:17:44.326Z,16.57
2019-01-15T06:20:17.735Z,17.13
2019-01-15T06:22:46.199Z,19.73
2019-01-15T06:25:14.860Z,14.53
2019-01-15T06:27:43.352Z,17.67
2019-01-15T06:30:19.937Z,15.53
2019-01-15T06:32:48.412Z,17.83
2019-01-15T06:35:16.846Z,16.40
2019-01-15T06:37:48.049Z,12.63
2019-01-15T06:40:18.058Z,16.53
2019-01-15T06:42:46.584Z,16.83
2019-01-15T06:45:17.892Z,13.93
2019-01-15T06:47:46.291Z,15.47
2019-01-15T06:50:15.248Z,10.83
2019-01-15T06:52:43.832Z,14.83
2019-01-15T06:55:14.884Z,19.30
2019-01-15T06:57:46.399Z,13.57
2019-01-15T07:00:23.374Z,15.00
2019-01-15T07:02:51.783Z,13.73
2019-01-15T07:05:20.276Z,14.43
2019-01-15T07:07:48.740Z,16.23
2019-01-15T07:10:22.861Z,10.67
2019-01-15T07:12:51.271Z,15.93
2019-01-15T07:15:19.774Z,11.23
2019-01-15T07:17:48.357Z,10.93
2019-01-15T07:20:17.180Z,11.27
2019-01-15T07:22:45.583Z,10.00
2019-01-15T07:25:16.788Z,14.90
2019-01-15T07:27:45.214Z,12.90
2019-01-15T07:30:25.676Z,12.03
2019-01-15T07:32:55.389Z,13.97
2019-01-15T07:35:23.895Z,12.83
2019-01-15T07:37:52.323Z,12.43
2019-01-15T07:40:20.758Z,16.63
2019-01-15T07:42:49.173Z,12.90
2019-01-15T07:45:17.598Z,15.80
2019-01-15T07:47:46.159Z,16.33
2019-01-15T07:50:19.182Z,17.47
2019-01-15T07:52:48.227Z,13.77
2019-01-15T07:55:18.499Z,13.60
2019-01-15T07:57:46.959Z,14.37
2019-01-15T08:00:18.473Z,13.17
2019-01-15T08:02:47.074Z,13.77
2019-01-15T08:05:18.252Z,13.30
2019-01-15T08:07:46.809Z,14.60
2019-01-15T08:10:17.302Z,11.73
2019-01-15T08:12:45.953Z,13.27
2019-01-15T08:15:26.096Z,13.97
2019-01-15T08:17:54.516Z,11.93
2019-01-15T08:20:23.128Z,14.87
2019-01-15T08:22:51.531Z,13.30
2019-01-15T08:25:20.068Z,17.27
2019-01-15T08:27:48.481Z,13.40
2019-01-15T08:30:22.755Z,14.60
2019-01-15T08:32:51.155Z,14.67
2019-01-15T08:35:19.669Z,16.47
2019-01-15T08:37:48.157Z,14.47
2019-01-15T08:40:18.102Z,15.57
2019-01-15T08:42:46.512Z,15.07
2019-01-15T08:45:16.673Z,13.23
2019-01-15T08:47:50.287Z,15.43
2019-01-15T08:50:30.010Z,18.23
2019-01-15T08:52:58.461Z,17.67
2019-01-15T08:55:26.867Z,16.50
2019-01-15T08:57:55.553Z,14.73
2019-01-15T09:00:24.439Z,16.90
2019-01-15T09:02:52.927Z,14.03
2019-01-15T09:05:21.351Z,18.53
2019-01-15T09:07:49.780Z,19.37
2019-01-15T09:10:18.924Z,18.37
2019-01-15T09:12:47.642Z,22.10
2019-01-15T09:15:21.238Z,19.27
2019-01-15T09:17:49.725Z,21.00
2019-01-15T09:20:20.489Z,20.83
2019-01-15T09:22:49.074Z,24.17
2019-01-15T09:25:17.567Z,22.40
2019-01-15T09:27:46.073Z,17.83
2019-01-15T09:30:16.917Z,23.37
2019-01-15T09:32:45.413Z,19.97
2019-01-15T09:35:13.973Z,24.20
2019-01-15T09:37:42.981Z,22.20
2019-01-15T09:40:14.561Z,22.83
2019-01-15T09:42:43.024Z,21.60
2019-01-15T09:45:14.080Z,21.60
2019-01-15T09:47:44.216Z,20.70
2019-01-15T09:50:12.881Z,21.37
2019-01-15T09:52:41.339Z,23.20
2019-01-15T09:55:10.639Z,21.93
2019-01-15T09:57:39.146Z,23.50
2019-01-15T10:00:13.142Z,23.00
2019-01-15T10:02:41.601Z,22.33
2019-01-15T10:05:10.102Z,17.43
2019-01-15T10:07:38.517Z,21.63
2019-01-15T10:10:10.383Z,18.50
2019-01-15T10:12:38.812Z,17.80
2019-01-15T10:15:10.310Z,23.57
2019-01-15T10:17:38.765Z,22.23
2019-01-15T10:20:10.447Z,21.73
2019-01-15T10:22:38.901Z,18.00
2019-01-15T10:25:10.201Z,20.13
2019-01-15T10:27:38.818Z,20.07
2019-01-15T10:30:40.074Z,23.20
2019-01-15T10:33:19.800Z,19.90
2019-01-15T10:35:54.665Z,21.87
2019-01-15T10:38:28.391Z,19.80
2019-01-15T10:40:57.658Z,19.60
2019-01-15T10:43:26.952Z,17.10
2019-01-15T10:45:55.801Z,17.73
2019-01-15T10:48:24.326Z,18.67
2019-01-15T10:50:52.801Z,16.57
2019-01-15T10:53:21.333Z,20.23
2019-01-15T10:55:49.806Z,12.27
2019-01-15T10:58:18.271Z,16.93
2019-01-15T11:00:46.791Z,15.67
2019-01-15T11:03:15.253Z,15.83
2019-01-15T11:05:43.792Z,14.77
2019-01-15T11:08:12.233Z,12.07
2019-01-15T11:10:40.670Z,15.83
2019-01-15T11:13:09.114Z,14.27
2019-01-15T11:15:43.105Z,14.23
2019-01-15T11:18:07.692Z,15.33
2019-01-15T11:20:36.130Z,11.87
2019-01-15T11:23:04.939Z,14.50
2019-01-15T11:25:33.397Z,12.63
2019-01-15T11:28:01.809Z,35.40
2019-01-15T11:30:30.306Z,13.37
2019-01-15T11:32:58.832Z,16.13
2019-01-15T11:35:27.291Z,11.50
2019-01-15T11:37:55.838Z,13.63
2019-01-15T11:40:24.274Z,13.70
2019-01-15T11:42:52.703Z,12.47
2019-01-15T11:45:21.191Z,11.67
2019-01-15T11:47:50.990Z,14.13
2019-01-15T11:50:22.837Z,12.57
2019-01-15T11:52:51.295Z,12.13
2019-01-15T11:55:21.303Z,12.70
2019-01-15T11:57:49.998Z,12.30
2019-01-15T12:00:34.422Z,17.43
2019-01-15T12:03:13.175Z,13.40
2019-01-15T12:05:48.932Z,13.17
2019-01-15T12:08:19.025Z,12.27
2019-01-15T12:10:58.096Z,13.63
2019-01-15T12:13:44.200Z,16.97
2019-01-15T12:16:20.137Z,15.57
2019-01-15T12:19:08.151Z,12.03
2019-01-15T12:21:43.996Z,13.77
2019-01-15T12:24:28.975Z,13.83
2019-01-15T12:27:11.007Z,10.63
2019-01-15T12:29:41.096Z,14.50
2019-01-15T12:32:11.196Z,15.00
2019-01-15T12:34:41.271Z,11.97
2019-01-15T12:37:14.111Z,16.50
2019-01-15T12:39:47.140Z,14.93
2019-01-15T12:42:17.169Z,13.43
2019-01-15T12:44:47.244Z,14.43
2019-01-15T12:47:23.054Z,13.37
2019-01-15T12:49:59.154Z,13.33
2019-01-15T12:52:43.751Z,10.13
2019-01-15T12:55:22.673Z,9.37
2019-01-15T12:58:04.619Z,7.73
2019-01-15T13:00:34.658Z,11.97
2019-01-15T13:03:20.689Z,9.13
2019-01-15T13:05:53.739Z,13.50
2019-01-15T13:08:23.835Z,10.93
2019-01-15T13:11:11.749Z,12.90
2019-01-15T13:13:44.788Z,8.03
2019-01-15T13:16:17.296Z,12.40
2019-01-15T13:19:05.263Z,6.33
2019-01-15T13:21:47.213Z,10.60
2019-01-15T13:24:33.602Z,11.43
2019-01-15T13:27:18.893Z,8.60
2019-01-15T13:29:57.732Z,8.23
2019-01-15T13:32:27.776Z,9.83
2019-01-15T13:35:15.672Z,9.67
2019-01-15T13:37:48.569Z,9.07
2019-01-15T13:40:18.664Z,10.23
2019-01-15T13:42:51.192Z,9.23
2019-01-15T13:45:21.404Z,11.13
2019-01-15T13:47:56.989Z,8.63
2019-01-15T13:50:27.099Z,9.63
2019-01-15T13:52:57.179Z,8.17
2019-01-15T13:55:36.285Z,13.13
2019-01-15T13:58:21.400Z,10.57
2019-01-15T14:01:07.502Z,12.33
2019-01-15T14:03:46.031Z,10.70
2019-01-15T14:06:16.092Z,11.93
2019-01-15T14:08:49.180Z,13.03
2019-01-15T14:11:35.215Z,10.93
2019-01-15T14:14:11.273Z,14.53
2019-01-15T14:16:41.435Z,13.63
2019-01-15T14:19:14.337Z,18.00
2019-01-15T14:21:44.505Z,11.20
2019-01-15T14:24:30.609Z,13.03
2019-01-15T14:27:17.016Z,14.60
2019-01-15T14:29:50.021Z,10.70
2019-01-15T14:32:36.292Z,14.40
2019-01-15T14:35:10.455Z,13.70
2019-01-15T14:37:56.795Z,9.47
2019-01-15T14:40:26.865Z,12.67
2019-01-15T14:43:12.686Z,14.73
2019-01-15T14:46:00.445Z,10.97
2019-01-15T14:48:42.689Z,12.70
2019-01-15T14:51:12.764Z,16.93
2019-01-15T14:53:51.585Z,10.87
2019-01-15T14:56:37.913Z,10.03
2019-01-15T14:59:10.762Z,13.20
2019-01-15T15:01:52.373Z,10.47
2019-01-15T15:04:40.097Z,14.17
2019-01-15T15:07:18.815Z,11.33
2019-01-15T15:09:48.962Z,10.87
2019-01-15T15:12:27.756Z,11.07
2019-01-15T15:15:03.838Z,11.43
2019-01-15T15:17:50.261Z,13.33
2019-01-15T15:20:20.349Z,8.37
2019-01-15T15:22:50.463Z,11.00
2019-01-15T15:25:27.108Z,10.10
2019-01-15T15:28:06.043Z,10.17
2019-01-15T15:30:52.449Z,11.87
2019-01-15T15:33:31.629Z,9.47
2019-01-15T15:36:01.706Z,14.37
2019-01-15T15:38:37.254Z,8.97
2019-01-15T15:41:13.219Z,10.10
2019-01-15T15:43:43.315Z,9.37
2019-01-15T15:46:19.171Z,12.40
2019-01-15T15:49:05.365Z,8.67
2019-01-15T15:51:35.467Z,10.60
2019-01-15T15:54:08.164Z,13.90
2019-01-15T15:56:49.994Z,9.73
2019-01-15T15:59:28.883Z,10.33
2019-01-15T16:02:14.959Z,8.67
2019-01-15T16:04:45.022Z,9.70
2019-01-15T16:07:15.119Z,7.17
2019-01-15T16:09:53.749Z,7.63
2019-01-15T16:12:26.588Z,9.73
2019-01-15T16:15:12.516Z,8.90
2019-01-15T16:17:45.396Z,8.27
2019-01-15T16:20:31.668Z,10.90
2019-01-15T16:23:18.071Z,10.83
2019-01-15T16:25:48.148Z,7.57
2019-01-15T16:28:18.207Z,12.93
2019-01-15T16:31:04.236Z,10.43
2019-01-15T16:33:43.171Z,10.87
2019-01-15T16:36:13.282Z,12.30
2019-01-15T16:38:57.906Z,10.97
2019-01-15T16:41:28.498Z,9.20
2019-01-15T16:44:07.298Z,11.10
2019-01-15T16:46:53.793Z,10.47
2019-01-15T16:49:23.862Z,8.33
2019-01-15T16:52:01.397Z,8.13
2019-01-15T16:54:33.985Z,10.90
2019-01-15T16:57:16.042Z,12.13
2019-01-15T16:59:46.138Z,11.53
2019-01-15T17:02:32.465Z,9.43
2019-01-15T17:05:05.293Z,13.73
2019-01-15T17:07:38.234Z,8.87
2019-01-15T17:10:25.920Z,13.53
2019-01-15T17:12:56.036Z,8.67
2019-01-15T17:15:29.076Z,10.87
2019-01-15T17:18:14.999Z,12.80
2019-01-15T17:20:59.574Z,12.73
2019-01-15T17:23:32.083Z,12.17
2019-01-15T17:26:19.993Z,11.03
2019-01-15T17:28:52.612Z,15.47
2019-01-15T17:31:25.458Z,13.20
2019-01-15T17:33:55.661Z,12.07
2019-01-15T17:36:25.781Z,14.40
2019-01-15T17:39:12.249Z,12.30
2019-01-15T17:41:57.241Z,11.07
2019-01-15T17:44:30.077Z,9.97
2019-01-15T17:47:06.230Z,8.63
2019-01-15T17:49:45.062Z,13.30
2019-01-15T17:52:15.158Z,10.67
2019-01-15T17:55:00.977Z,10.53
2019-01-15T17:57:47.416Z,18.97
2019-01-15T18:00:35.422Z,17.90
2019-01-15T18:03:07.993Z,13.83
2019-01-15T18:05:54.219Z,11.53
2019-01-15T18:08:30.088Z,8.63
2019-01-15T18:11:07.541Z,15.40
2019-01-15T18:13:53.459Z,13.57
2019-01-15T18:16:39.694Z,12.00
2019-01-15T18:19:12.777Z,11.03
2019-01-15T18:21:42.870Z,12.63
2019-01-15T18:24:15.726Z,10.20
2019-01-15T18:27:03.726Z,10.77
2019-01-15T18:29:36.281Z,12.97
2019-01-15T18:32:22.567Z,9.53
2019-01-15T18:34:57.406Z,8.30
2019-01-15T18:37:33.372Z,12.30
2019-01-15T18:40:19.556Z,16.10
2019-01-15T18:42:55.439Z,16.00
2019-01-15T18:45:43.494Z,11.83
2019-01-15T18:48:30.872Z,10.40
2019-01-15T18:51:20.205Z,10.67
2019-01-15T18:54:06.600Z,19.93
2019-01-15T18:56:37.218Z,9.67
2019-01-15T18:59:16.348Z,13.50
2019-01-15T19:02:03.992Z,8.07
2019-01-15T19:04:39.664Z,14.17
2019-01-15T19:07:26.192Z,8.90
2019-01-15T19:10:12.001Z,9.43
2019-01-15T19:12:44.767Z,17.27
2019-01-15T19:15:32.177Z,11.47
2019-01-15T19:18:04.936Z,13.40
2019-01-15T19:20:35.027Z,10.97
2019-01-15T19:23:11.086Z,13.77
2019-01-15T19:25:55.942Z,12.50
2019-01-15T19:28:26.135Z,12.90
2019-01-15T19:30:56.283Z,15.77
2019-01-15T19:33:34.962Z,16.53
2019-01-15T19:36:11.653Z,12.77
2019-01-15T19:38:45.981Z,9.53
2019-01-15T19:41:35.431Z,13.23
2019-01-15T19:44:21.518Z,10.67
2019-01-15T19:47:10.472Z,10.30
2019-01-15T19:49:51.591Z,7.80
2019-01-15T19:52:33.799Z,13.73
2019-01-15T19:55:06.835Z,15.43
2019-01-15T19:57:39.545Z,12.80
2019-01-15T20:00:26.551Z,10.13
2019-01-15T20:03:12.846Z,10.60
2019-01-15T20:05:57.382Z,17.60
2019-01-15T20:08:43.543Z,13.03
2019-01-15T20:11:13.964Z,15.53
2019-01-15T20:13:49.695Z,10.33
2019-01-15T20:16:25.328Z,11.53
2019-01-15T20:19:10.447Z,10.53
2019-01-15T20:21:46.256Z,12.83
2019-01-15T20:24:28.060Z,12.43
2019-01-15T20:27:00.850Z,10.10
2019-01-15T20:29:47.323Z,9.87
2019-01-15T20:32:17.379Z,12.17
2019-01-15T20:34:50.416Z,13.30
2019-01-15T20:37:36.718Z,14.83
2019-01-15T20:40:25.958Z,10.43
2019-01-15T20:42:56.113Z,10.60
2019-01-15T20:45:28.865Z,11.60
2019-01-15T20:48:13.987Z,7.93
2019-01-15T20:51:03.319Z,5.73
2019-01-15T20:53:46.707Z,9.50
2019-01-15T20:56:19.877Z,10.50
2019-01-15T20:58:52.884Z,8.40
2019-01-15T21:01:28.652Z,11.83
2019-01-15T21:04:14.978Z,12.20
2019-01-15T21:06:45.044Z,8.37
2019-01-15T21:09:23.979Z,12.20
2019-01-15T21:12:10.465Z,12.50
2019-01-15T21:14:49.399Z,9.87
2019-01-15T21:17:19.515Z,14.17
2019-01-15T21:19:49.595Z,11.27
2019-01-15T21:22:35.897Z,16.10
2019-01-15T21:25:16.000Z,15.57
2019-01-15T21:27:57.739Z,14.67
2019-01-15T21:30:33.568Z,11.63
2019-01-15T21:33:21.322Z,10.33
2019-01-15T21:36:06.207Z,14.23
2019-01-15T21:38:52.451Z,15.23
2019-01-15T21:41:31.597Z,14.17
2019-01-15T21:44:04.552Z,10.77
2019-01-15T21:46:45.115Z,10.70
2019-01-15T21:49:15.364Z,14.40
2019-01-15T21:52:01.713Z,14.73
2019-01-15T21:54:40.573Z,15.60
2019-01-15T21:57:28.408Z,13.30
2019-01-15T21:59:58.507Z,14.27
2019-01-15T22:02:31.509Z,12.43
2019-01-15T22:05:13.523Z,16.43
2019-01-15T22:07:59.871Z,14.90
2019-01-15T22:10:40.572Z,16.17
2019-01-15T22:13:27.007Z,12.60
2019-01-15T22:15:59.569Z,17.83
2019-01-15T22:18:29.643Z,17.77
2019-01-15T22:20:59.792Z,16.53
2019-01-15T22:23:32.620Z,12.50
2019-01-15T22:26:17.453Z,12.30
2019-01-15T22:28:50.210Z,14.50
2019-01-15T22:31:30.240Z,17.50
2019-01-15T22:34:03.072Z,13.50
2019-01-15T22:36:40.895Z,13.47
2019-01-15T22:39:13.820Z,13.17
2019-01-15T22:42:01.383Z,15.60
2019-01-15T22:44:33.998Z,15.20
2019-01-15T22:47:06.659Z,9.93
2019-01-15T22:49:39.376Z,9.80
2019-01-15T22:52:25.689Z,9.60
2019-01-15T22:55:11.798Z,12.07
2019-01-15T22:57:50.843Z,9.17
2019-01-15T23:00:40.165Z,10.90
2019-01-15T23:03:16.169Z,9.50
2019-01-15T23:05:48.813Z,9.67
2019-01-15T23:08:24.767Z,8.77
2019-01-15T23:10:57.359Z,11.77
2019-01-15T23:13:33.468Z,7.30
2019-01-15T23:16:10.587Z,8.70
2019-01-15T23:18:40.644Z,13.90
2019-01-15T23:21:10.798Z,8.53
2019-01-15T23:23:40.847Z,12.40
2019-01-15T23:26:10.963Z,12.13
2019-01-15T23:28:58.333Z,11.60
2019-01-15T23:31:34.240Z,10.60
2019-01-15T23:34:22.309Z,11.67
2019-01-15T23:37:03.982Z,11.87
2019-01-15T23:39:42.755Z,9.70
2019-01-15T23:42:28.759Z,9.37
2019-01-15T23:45:01.571Z,8.40
2019-01-15T23:47:46.606Z,9.33
2019-01-15T23:50:22.561Z,10.80
2019-01-15T23:52:58.269Z,10.57
2019-01-15T23:55:37.176Z,10.37
2019-01-15T23:58:18.786Z,10.73
